Time;durP1;ratioP1;P1;durP2;ratioP2;P2;SDS_P1;SDS_P2;PMS_P1;PMS_P2;Temp;Humidity;BMP_temperature;BMP_pressure;BME280_temperature;BME280_humidity;BME280_pressure;Samples;Min_cycle;Max_cycle;Signal;HPM_P1;HPM_P2
2020/12/25 00:00:24;;;;;;;18.65;12.68;;;;;;;8.33;82.67;96311.94;1737870;82;21564;-77
2020/12/25 00:02:53;;;;;;;14.05;10.45;;;;;;;8.36;82.55;96312.51;1738559;82;21555;-78
2020/12/25 00:05:21;;;;;;;14.73;10.55;;;;;;;8.39;82.62;96318.83;1738708;82;21152;-80
2020/12/25 00:07:48;;;;;;;15.90;11.10;;;;;;;8.50;82.89;96326.29;1738936;82;21141;-79
2020/12/25 00:10:15;;;;;;;12.03;9.15;;;;;;;8.53;82.56;96329.52;1718509;82;21137;-80
2020/12/25 00:12:44;;;;;;;13.30;10.28;;;;;;;8.55;82.71;96325.44;1709660;82;21242;-79
2020/12/25 00:15:11;;;;;;;13.88;9.10;;;;;;;8.52;82.36;96318.66;1709674;83;21299;-80
2020/12/25 00:17:39;;;;;;;10.75;7.47;;;;;;;8.52;82.29;96324.38;1709242;83;21267;-79
2020/12/25 00:20:06;;;;;;;12.30;8.48;;;;;;;8.53;82.34;96320.78;1709316;83;21303;-79
2020/12/25 00:22:34;;;;;;;10.68;7.80;;;;;;;8.53;82.34;96320.78;1682998;84;21149;-79
2020/12/25 00:25:01;;;;;;;9.18;6.85;;;;;;;8.60;82.51;96335.06;1679212;85;21189;-79
2020/12/25 00:27:28;;;;;;;9.88;7.75;;;;;;;8.60;82.59;96320.61;1687334;84;21152;-79
2020/12/25 00:29:55;;;;;;;8.83;6.17;;;;;;;8.68;82.63;96329.17;1677940;85;21141;-80
2020/12/25 00:32:22;;;;;;;9.15;5.97;;;;;;;8.69;82.28;96329.03;1677583;84;21180;-80
2020/12/25 00:34:50;;;;;;;9.25;6.42;;;;;;;8.72;82.30;96332.72;1677381;84;21118;-80
2020/12/25 00:37:17;;;;;;;9.23;6.28;;;;;;;8.67;82.02;96347.20;1677694;84;21149;-78
2020/12/25 00:39:44;;;;;;;9.38;5.85;;;;;;;8.71;82.22;96342.87;1677511;84;21162;-80
2020/12/25 00:42:11;;;;;;;9.43;5.50;;;;;;;8.69;81.93;96345.28;1677458;84;21626;-79
2020/12/25 00:44:38;;;;;;;10.55;6.17;;;;;;;8.77;82.35;96339.39;1701403;84;21558;-78
2020/12/25 00:47:06;;;;;;;8.08;5.65;;;;;;;8.84;82.25;96337.90;1684836;84;21137;-79
2020/12/25 00:49:33;;;;;;;7.95;5.10;;;;;;;8.81;82.25;96335.52;1675015;86;21703;-80
2020/12/25 00:52:00;;;;;;;7.50;5.33;;;;;;;8.83;82.22;96334.92;1714226;83;21163;-78
2020/12/25 00:54:29;;;;;;;7.40;4.92;;;;;;;8.83;82.39;96340.99;1715738;82;21554;-79
2020/12/25 00:57:10;;;;;;;10.23;5.05;;;;;;;8.87;82.15;96341.56;1825824;77;25287;-79
2020/12/25 00:59:56;;;;;;;7.00;5.05;;;;;;;8.77;81.88;96339.39;1762308;81;21151;-80
2020/12/25 01:02:28;;;;;;;7.42;5.40;;;;;;;8.68;82.16;96337.87;1747212;81;21562;-80
2020/12/25 01:04:52;;;;;;;6.37;4.70;;;;;;;8.70;82.49;96328.06;1741916;82;21132;-80
2020/12/25 01:07:19;;;;;;;6.70;5.37;;;;;;;8.72;82.33;96326.15;1742273;82;21293;-79
2020/12/25 01:09:47;;;;;;;8.28;5.35;;;;;;;8.69;82.19;96342.16;1754819;81;21281;-82
2020/12/25 01:12:14;;;;;;;8.55;4.92;;;;;;;8.68;82.38;96342.30;1772302;81;21151;-79
2020/12/25 01:14:41;;;;;;;7.35;4.67;;;;;;;8.62;82.01;96339.71;1742937;81;21704;-79
2020/12/25 01:17:09;;;;;;;5.47;4.25;;;;;;;8.50;81.84;96333.70;1741867;82;21132;-81
2020/12/25 01:19:36;;;;;;;6.85;4.53;;;;;;;8.42;81.90;96338.25;1741716;82;21290;-79
2020/12/25 01:22:03;;;;;;;6.03;4.75;;;;;;;8.34;81.82;96338.55;1741523;82;21136;-78
2020/12/25 01:24:31;;;;;;;6.58;4.12;;;;;;;8.32;82.03;96349.16;1741733;82;21162;-80
2020/12/25 01:26:58;;;;;;;6.15;4.67;;;;;;;8.28;82.00;96343.83;1741612;82;21178;-80
2020/12/25 01:29:25;;;;;;;4.17;3.37;;;;;;;8.23;81.95;96342.05;1741545;82;21124;-79
2020/12/25 01:31:52;;;;;;;4.28;3.37;;;;;;;8.17;81.94;96342.07;1741270;82;21139;-79
2020/12/25 01:34:21;;;;;;;6.53;3.62;;;;;;;8.15;81.96;96340.08;1739048;82;21163;-80
2020/12/25 01:36:49;;;;;;;5.30;3.58;;;;;;;8.12;82.02;96333.27;1741364;82;21282;-78
2020/12/25 01:39:16;;;;;;;6.03;3.45;;;;;;;8.17;82.34;96329.44;1741737;82;21301;-80
2020/12/25 01:41:44;;;;;;;6.45;2.70;;;;;;;8.19;82.43;96324.41;1741522;82;21166;-80
2020/12/25 01:44:11;;;;;;;4.33;2.80;;;;;;;8.20;82.25;96326.57;1766012;81;21155;-80
2020/12/25 01:46:38;;;;;;;4.00;2.85;;;;;;;8.22;82.48;96327.25;1741683;82;21318;-79
2020/12/25 01:49:06;;;;;;;3.58;2.62;;;;;;;8.21;82.58;96327.75;1741593;82;21150;-80
2020/12/25 01:51:34;;;;;;;3.35;2.37;;;;;;;8.24;82.46;96327.97;1740679;81;21250;-76
2020/12/25 01:54:01;;;;;;;2.58;2.22;;;;;;;8.23;82.51;96323.20;1742003;81;21108;-78
2020/12/25 01:56:29;;;;;;;4.20;2.22;;;;;;;8.28;82.47;96321.02;1733335;82;21310;-81
2020/12/25 01:58:56;;;;;;;3.25;2.12;;;;;;;8.27;82.27;96319.84;1755817;80;21562;-79
2020/12/25 02:01:24;;;;;;;6.65;2.62;;;;;;;8.25;81.98;96323.07;1798196;79;21137;-80
2020/12/25 02:03:51;;;;;;;3.62;2.08;;;;;;;8.26;82.55;96318.17;1782687;80;21152;-79
2020/12/25 02:06:18;;;;;;;4.58;2.12;;;;;;;8.23;82.40;96314.48;1782568;80;21159;-78
2020/12/25 02:08:46;;;;;;;3.75;2.40;;;;;;;8.26;82.51;96318.99;1781911;80;21152;-77
2020/12/25 02:11:15;;;;;;;3.40;2.25;;;;;;;8.29;82.49;96325.31;1782365;80;21130;-79
2020/12/25 02:13:43;;;;;;;6.25;2.20;;;;;;;8.29;82.41;96321.87;1782321;80;21129;-78
2020/12/25 02:16:10;;;;;;;4.45;2.20;;;;;;;8.28;82.60;96320.20;1782149;80;21581;-79
2020/12/25 02:18:38;;;;;;;4.30;2.17;;;;;;;8.27;82.57;96323.78;1782035;80;21109;-78
2020/12/25 02:21:06;;;;;;;3.87;2.37;;;;;;;8.31;82.69;96320.41;1782005;80;21720;-79
2020/12/25 02:23:34;;;;;;;4.00;1.85;;;;;;;8.24;81.58;96314.84;1782371;80;21140;-79
2020/12/25 02:26:01;;;;;;;6.55;2.00;;;;;;;8.20;82.39;96326.08;1812269;79;21576;-78
2020/12/25 02:28:29;;;;;;;5.03;1.80;;;;;;;8.27;82.67;96322.47;1798843;79;21699;-79
2020/12/25 02:30:56;;;;;;;5.50;2.10;;;;;;;8.37;82.96;96318.58;1820907;79;21147;-79
2020/12/25 02:33:25;;;;;;;2.55;1.98;;;;;;;8.43;82.77;96316.77;1820358;78;21124;-78
2020/12/25 02:35:52;;;;;;;2.58;2.00;;;;;;;8.43;82.37;96317.59;1820610;79;21101;-78
2020/12/25 02:38:20;;;;;;;4.35;2.02;;;;;;;8.49;82.97;96318.09;1820688;78;21124;-80
2020/12/25 02:40:47;;;;;;;2.85;1.98;;;;;;;8.58;83.00;96312.05;1814629;79;21198;-79
2020/12/25 02:43:14;;;;;;;2.60;1.87;;;;;;;8.57;81.96;96314.33;1787995;80;21116;-78
2020/12/25 02:45:42;;;;;;;2.10;1.67;;;;;;;8.44;82.26;96317.95;1788128;80;21124;-81
2020/12/25 02:48:09;;;;;;;2.60;1.82;;;;;;;8.43;82.27;96315.46;1788220;80;21124;-80
2020/12/25 02:50:36;;;;;;;2.65;1.92;;;;;;;8.39;82.25;96320.14;1784726;80;21148;-78
2020/12/25 02:53:04;;;;;;;2.10;1.67;;;;;;;8.32;82.21;96317.65;1782567;80;21132;-79
2020/12/25 02:55:32;;;;;;;3.67;2.00;;;;;;;8.38;82.71;96322.41;1782413;80;21267;-78
2020/12/25 02:57:59;;;;;;;3.17;2.00;;;;;;;8.42;82.76;96322.48;1782619;80;21153;-78
2020/12/25 03:00:26;;;;;;;3.90;1.50;;;;;;;8.40;82.64;96324.90;1782484;80;21132;-79
2020/12/25 03:02:53;;;;;;;2.70;2.00;;;;;;;8.46;83.12;96324.87;1782445;80;21125;-79
2020/12/25 03:05:22;;;;;;;2.98;1.95;;;;;;;8.55;83.32;96325.44;1780026;80;21274;-78
2020/12/25 03:07:50;;;;;;;3.25;1.80;;;;;;;8.61;83.55;96307.83;1782300;80;21180;-79
2020/12/25 03:10:17;;;;;;;2.33;1.80;;;;;;;8.70;83.71;96312.30;1782536;80;21128;-78
2020/12/25 03:12:44;;;;;;;7.12;1.55;;;;;;;8.79;83.63;96320.36;1793717;79;21135;-78
2020/12/25 03:15:12;;;;;;;7.30;1.82;;;;;;;8.81;83.30;96315.81;1820352;79;21144;-80
2020/12/25 03:17:39;;;;;;;2.33;1.47;;;;;;;8.79;83.42;96313.33;1820562;79;21123;-79
2020/12/25 03:20:06;;;;;;;2.77;1.80;;;;;;;8.67;82.90;96314.36;1820534;79;21135;-79
2020/12/25 03:22:34;;;;;;;3.35;1.72;;;;;;;8.64;83.53;96315.47;1820259;79;21569;-79
2020/12/25 03:25:01;;;;;;;2.75;1.70;;;;;;;8.67;83.89;96309.11;1820506;79;21131;-78
2020/12/25 03:27:28;;;;;;;2.72;1.45;;;;;;;8.67;83.59;96306.02;1820256;79;21171;-80
2020/12/25 03:29:56;;;;;;;3.08;1.75;;;;;;;8.68;83.61;96307.66;1820637;78;21136;-79
2020/12/25 03:32:23;;;;;;;2.80;1.52;;;;;;;8.66;83.40;96310.92;1792971;79;21550;-77
2020/12/25 03:34:50;;;;;;;3.50;2.00;;;;;;;8.56;82.89;96313.97;1782320;80;21359;-78
2020/12/25 03:37:19;;;;;;;2.45;1.75;;;;;;;8.51;83.08;96326.64;1781827;80;21144;-79
2020/12/25 03:39:46;;;;;;;3.85;2.00;;;;;;;8.44;82.97;96327.14;1797212;79;21136;-78
2020/12/25 03:42:13;;;;;;;4.15;1.70;;;;;;;8.35;82.92;96327.91;1823522;79;21167;-78
2020/12/25 03:44:41;;;;;;;4.28;1.60;;;;;;;8.37;83.42;96329.94;1811510;78;21262;-79
2020/12/25 03:47:08;;;;;;;2.62;1.82;;;;;;;8.40;83.33;96324.41;1782303;80;21161;-78
2020/12/25 03:49:35;;;;;;;2.80;1.87;;;;;;;8.47;83.63;96331.79;1782346;80;21148;-79
2020/12/25 03:52:02;;;;;;;2.50;1.70;;;;;;;8.38;82.89;96333.38;1782323;80;21156;-78
2020/12/25 03:54:30;;;;;;;3.72;1.60;;;;;;;8.33;83.21;96336.39;1782154;80;21148;-78
2020/12/25 03:56:57;;;;;;;4.65;2.10;;;;;;;8.24;82.99;96328.81;1785249;80;21160;-78
2020/12/25 03:59:24;;;;;;;3.55;1.70;;;;;;;8.21;83.19;96329.55;1787680;80;21147;-79
2020/12/25 04:01:51;;;;;;;2.65;1.80;;;;;;;8.21;83.18;96326.92;1787866;80;21109;-78
2020/12/25 04:04:18;;;;;;;2.77;2.30;;;;;;;8.17;82.98;96326.32;1788227;79;21152;-78
2020/12/25 04:06:46;;;;;;;2.72;1.67;;;;;;;8.23;83.59;96323.67;1788185;79;21140;-78
2020/12/25 04:09:13;;;;;;;3.17;1.80;;;;;;;8.21;82.97;96322.98;1789379;78;21128;-79
2020/12/25 04:11:40;;;;;;;7.40;1.50;;;;;;;8.20;83.27;96330.02;1815318;79;21100;-78
2020/12/25 04:14:08;;;;;;;3.37;1.60;;;;;;;8.24;83.48;96330.13;1793527;80;21148;-79
2020/12/25 04:16:35;;;;;;;2.83;1.70;;;;;;;8.27;83.58;96330.34;1793543;80;21135;-80
2020/12/25 04:19:02;;;;;;;2.62;1.60;;;;;;;8.27;83.58;96330.34;1793436;79;21688;-79
2020/12/25 04:21:29;;;;;;;3.05;1.70;;;;;;;8.20;83.38;96318.20;1794033;79;21136;-78
2020/12/25 04:23:57;;;;;;;2.05;1.55;;;;;;;8.27;83.09;96328.54;1793793;79;21116;-79
2020/12/25 04:26:24;;;;;;;2.25;1.52;;;;;;;8.29;83.09;96328.43;1793594;79;21581;-78
2020/12/25 04:28:51;;;;;;;4.55;2.42;;;;;;;8.36;83.35;96336.14;1793994;79;21274;-78
2020/12/25 04:31:18;;;;;;;2.20;1.50;;;;;;;8.34;82.94;96323.61;1793543;79;21120;-78
2020/12/25 04:33:45;;;;;;;2.62;1.50;;;;;;;8.35;83.28;96319.22;1794130;79;21265;-78
2020/12/25 04:36:14;;;;;;;1.70;1.20;;;;;;;8.42;83.18;96327.74;1790309;79;21600;-78
2020/12/25 04:38:42;;;;;;;3.60;1.30;;;;;;;8.42;82.91;96324.30;1795900;78;21554;-78
2020/12/25 04:41:11;;;;;;;3.45;1.20;;;;;;;8.41;82.90;96327.39;1826010;78;21170;-79
2020/12/25 04:43:42;;;;;;;2.62;1.57;;;;;;;8.33;82.26;96324.57;1825937;78;21289;-79
2020/12/25 04:46:10;;;;;;;4.22;1.77;;;;;;;8.23;82.28;96324.52;1826121;78;21107;-79
2020/12/25 04:48:38;;;;;;;1.20;1.00;;;;;;;8.18;82.54;96324.55;1826674;78;21143;-80
2020/12/25 04:51:06;;;;;;;2.45;1.40;;;;;;;8.13;82.49;96324.92;1826788;78;21278;-79
2020/12/25 04:53:34;;;;;;;3.65;1.30;;;;;;;8.17;82.78;96329.44;1826575;78;21132;-79
2020/12/25 04:56:02;;;;;;;2.17;1.20;;;;;;;8.17;82.81;96332.06;1826215;78;21160;-79
2020/12/25 04:58:29;;;;;;;4.22;1.50;;;;;;;8.08;82.51;96328.39;1823715;78;21670;-79
2020/12/25 05:01:10;;;;;;;2.30;1.30;;;;;;;8.05;82.66;96322.92;1823493;78;21569;-80
2020/12/25 05:03:41;;;;;;;1.90;1.30;;;;;;;8.05;82.73;96322.92;1823378;78;21112;-79
2020/12/25 05:06:11;;;;;;;2.35;1.40;;;;;;;8.06;82.79;96314.09;1823268;79;21160;-78
2020/12/25 05:08:45;;;;;;;1.67;1.32;;;;;;;8.11;83.10;96315.02;1776886;79;21166;-78
2020/12/25 05:11:18;;;;;;;1.60;1.20;;;;;;;8.16;83.02;96310.24;1820430;79;21262;-79
2020/12/25 05:13:53;;;;;;;1.72;1.35;;;;;;;8.22;83.05;96311.50;1820305;79;21537;-79
2020/12/25 05:16:22;;;;;;;2.52;1.50;;;;;;;8.24;82.54;96317.46;1820109;79;21116;-79
2020/12/25 05:18:52;;;;;;;4.67;1.02;;;;;;;8.18;83.00;96307.48;1820337;79;21116;-78
2020/12/25 05:21:21;;;;;;;1.57;1.10;;;;;;;8.15;82.55;96317.77;1820087;78;21156;-80
2020/12/25 05:23:50;;;;;;;1.57;1.12;;;;;;;8.15;82.34;96312.98;1820016;79;21546;-78
2020/12/25 05:26:18;;;;;;;3.65;1.30;;;;;;;8.15;82.34;96312.98;1819153;79;21151;-78
2020/12/25 05:28:49;;;;;;;1.47;1.00;;;;;;;8.15;82.77;96315.60;1822643;78;21116;-79
2020/12/25 05:31:18;;;;;;;1.37;0.90;;;;;;;8.20;82.80;96311.64;1820447;79;21180;-78
2020/12/25 05:33:49;;;;;;;3.30;1.00;;;;;;;8.25;82.79;96319.13;1820377;79;21128;-79
2020/12/25 05:36:18;;;;;;;2.05;1.25;;;;;;;8.24;82.61;96312.21;1816227;79;21570;-77
2020/12/25 05:38:50;;;;;;;2.02;1.40;;;;;;;8.15;82.25;96313.83;1796006;79;21238;-78
2020/12/25 05:41:17;;;;;;;1.20;0.80;;;;;;;8.13;82.62;96297.36;1819930;79;21147;-81
2020/12/25 05:43:50;;;;;;;2.52;1.10;;;;;;;8.25;82.70;96312.56;1820091;78;21121;-78
2020/12/25 05:46:18;;;;;;;1.60;1.02;;;;;;;8.27;82.58;96318.53;1819813;78;21124;-79
2020/12/25 05:48:52;;;;;;;1.32;1.00;;;;;;;8.22;82.17;96309.72;1819885;78;21136;-78
2020/12/25 05:51:21;;;;;;;1.10;0.90;;;;;;;8.10;81.73;96315.98;1819845;79;21132;-78
2020/12/25 05:53:53;;;;;;;2.58;1.05;;;;;;;8.03;81.90;96317.45;1820348;79;21321;-79
2020/12/25 05:56:21;;;;;;;1.70;1.25;;;;;;;8.07;82.63;96317.08;1820229;79;21151;-78
2020/12/25 05:58:50;;;;;;;1.62;1.00;;;;;;;8.22;82.83;96324.16;1815985;79;21104;-80
2020/12/25 06:01:18;;;;;;;2.25;1.65;;;;;;;8.24;82.50;96324.02;1788473;80;21262;-80
2020/12/25 06:03:46;;;;;;;3.58;0.95;;;;;;;8.26;82.32;96318.99;1787912;80;21120;-78
2020/12/25 06:06:14;;;;;;;1.82;1.00;;;;;;;8.27;82.02;96325.09;1788225;79;21132;-79
2020/12/25 06:08:53;;;;;;;2.52;1.60;;;;;;;8.28;82.10;96325.45;1782150;80;21133;-79
2020/12/25 06:11:26;;;;;;;2.60;1.22;;;;;;;8.26;82.07;96326.05;1802427;79;21073;-78
2020/12/25 06:13:54;;;;;;;1.35;1.20;;;;;;;8.34;82.22;96326.73;1818799;79;21124;-79
2020/12/25 06:16:22;;;;;;;4.70;1.20;;;;;;;8.37;82.02;96336.50;1787950;80;21159;-78
2020/12/25 06:19:16;;;;;;;3.70;1.20;;;;;;;8.41;82.28;96341.83;1787942;80;21148;-77
2020/12/25 06:22:06;;;;;;;3.98;1.37;;;;;;;8.47;82.14;96344.45;1787760;80;21136;-80
2020/12/25 06:24:37;;;;;;;1.72;1.32;;;;;;;8.46;81.97;96348.01;1787675;80;21142;-78
2020/12/25 06:27:05;;;;;;;5.00;1.80;;;;;;;8.43;81.60;96355.67;1783211;79;21145;-79
2020/12/25 06:29:33;;;;;;;2.70;2.20;;;;;;;8.29;81.44;96348.95;1752205;80;21321;-79
2020/12/25 06:32:04;;;;;;;3.02;2.20;;;;;;;8.15;81.35;96348.41;1782181;80;21136;-76
2020/12/25 06:34:47;;;;;;;7.17;1.98;;;;;;;7.99;81.35;96352.31;1779199;79;21134;-77
2020/12/25 06:37:16;;;;;;;5.78;2.52;;;;;;;7.97;81.90;96352.91;1767853;81;21155;-79
2020/12/25 06:39:52;;;;;;;2.65;1.60;;;;;;;8.10;82.54;96357.98;1769538;81;21139;-79
2020/12/25 06:42:32;;;;;;;4.97;2.05;;;;;;;8.11;82.09;96367.53;1769712;81;21281;-79
2020/12/25 06:45:09;;;;;;;2.67;1.92;;;;;;;8.05;82.03;96370.66;1769467;81;21588;-78
2020/12/25 06:47:40;;;;;;;3.92;2.10;;;;;;;7.98;82.03;96366.38;1769195;81;21288;-79
2020/12/25 06:50:14;;;;;;;5.35;1.65;;;;;;;8.02;82.51;96375.69;1805038;79;21155;-77
2020/12/25 06:52:58;;;;;;;2.87;1.87;;;;;;;8.14;82.73;96372.53;1789348;79;21128;-78
2020/12/25 06:55:29;;;;;;;3.62;2.00;;;;;;;8.28;82.78;96370.09;1788625;80;21132;-78
2020/12/25 06:57:57;;;;;;;4.55;2.00;;;;;;;8.36;82.69;96372.91;1786064;80;21154;-79
2020/12/25 07:00:24;;;;;;;2.25;1.80;;;;;;;8.39;82.42;96375.29;1791762;80;21262;-78
2020/12/25 07:02:51;;;;;;;3.60;2.85;;;;;;;8.47;82.37;96372.03;1790422;80;21569;-77
2020/12/25 07:05:18;;;;;;;4.22;2.55;;;;;;;8.47;82.37;96372.03;1802072;79;21088;-79
2020/12/25 07:07:47;;;;;;;3.85;2.95;;;;;;;8.47;81.99;96377.29;1804037;79;21151;-81
2020/12/25 07:10:16;;;;;;;3.83;2.70;;;;;;;8.44;81.75;96377.53;1805052;79;21277;-79
2020/12/25 07:12:43;;;;;;;4.53;2.67;;;;;;;8.44;82.03;96382.78;1804899;79;21134;-78
2020/12/25 07:15:10;;;;;;;4.65;2.45;;;;;;;8.47;81.97;96385.17;1804992;79;21140;-79
2020/12/25 07:17:37;;;;;;;10.38;5.22;;;;;;;8.46;82.04;96379.53;1804755;79;21151;-78
2020/12/25 07:20:09;;;;;;;3.42;2.20;;;;;;;8.50;82.10;96386.70;1804733;79;21189;-79
2020/12/25 07:22:36;;;;;;;3.17;1.90;;;;;;;8.50;82.10;96387.55;1804755;79;21147;-79
2020/12/25 07:25:09;;;;;;;1.65;1.47;;;;;;;8.49;82.07;96390.31;1803606;79;21282;-78
2020/12/25 07:27:37;;;;;;;3.65;2.02;;;;;;;8.52;81.76;96395.30;1799617;79;21145;-79
2020/12/25 07:30:05;;;;;;;2.52;1.60;;;;;;;8.53;81.84;96393.02;1791257;80;21121;-77
2020/12/25 07:32:32;;;;;;;3.58;1.57;;;;;;;8.59;81.56;96402.55;1790987;80;21575;-79
2020/12/25 07:35:06;;;;;;;4.33;1.72;;;;;;;8.59;81.56;96402.55;1791088;79;21145;-78
2020/12/25 07:37:33;;;;;;;2.00;1.30;;;;;;;8.60;81.63;96403.36;1790736;80;21129;-78
2020/12/25 07:40:08;;;;;;;3.00;1.80;;;;;;;8.56;81.65;96397.53;1797916;79;21135;-77
2020/12/25 07:42:39;;;;;;;3.65;2.05;;;;;;;8.67;81.75;96417.68;1823495;79;21147;-77
2020/12/25 07:45:07;;;;;;;4.28;2.05;;;;;;;8.66;81.51;96416.01;1823626;78;21136;-77
2020/12/25 07:47:39;;;;;;;2.85;1.55;;;;;;;8.69;81.60;96420.17;1822716;79;21124;-77
2020/12/25 07:50:07;;;;;;;3.35;2.22;;;;;;;8.64;81.21;96416.61;1818141;79;21258;-77
2020/12/25 07:52:34;;;;;;;2.95;2.02;;;;;;;8.61;81.41;96429.17;1802514;78;21100;-77
2020/12/25 07:55:03;;;;;;;8.73;3.67;;;;;;;8.61;81.41;96429.17;1774730;79;21116;-76
2020/12/25 07:57:31;;;;;;;3.55;2.98;;;;;;;8.65;81.67;96426.63;1794095;79;21171;-78
2020/12/25 08:00:02;;;;;;;6.53;3.13;;;;;;;8.64;81.63;96425.80;1793268;79;21140;-78
2020/12/25 08:02:32;;;;;;;4.87;3.40;;;;;;;8.64;81.59;96428.44;1793665;80;21277;-77
2020/12/25 08:04:59;;;;;;;9.08;4.92;;;;;;;8.64;81.71;96425.80;1816932;78;21132;-77
2020/12/25 08:07:27;;;;;;;8.35;6.22;;;;;;;8.69;81.74;96428.05;1793231;79;21178;-75
2020/12/25 08:09:59;;;;;;;6.50;5.17;;;;;;;8.73;81.88;96427.67;1793201;79;21573;-80
2020/12/25 08:12:29;;;;;;;10.65;6.25;;;;;;;8.78;81.86;96429.06;1767852;80;21143;-75
2020/12/25 08:14:59;;;;;;;8.05;5.60;;;;;;;8.79;81.76;96433.36;1797515;79;21585;-76
2020/12/25 08:17:27;;;;;;;11.55;5.92;;;;;;;8.75;81.80;96436.27;1797862;79;21545;-77
2020/12/25 08:19:54;;;;;;;8.65;5.20;;;;;;;8.75;81.81;96435.41;1761314;81;21570;-77
2020/12/25 08:22:22;;;;;;;10.80;5.62;;;;;;;8.75;81.86;96431.47;1736421;82;21171;-79
2020/12/25 08:24:49;;;;;;;8.10;5.85;;;;;;;8.79;81.84;96441.23;1742608;81;21611;-76
2020/12/25 08:27:17;;;;;;;10.53;7.90;;;;;;;8.80;81.88;96437.19;1716772;83;21188;-77
2020/12/25 08:29:51;;;;;;;12.18;8.35;;;;;;;8.77;81.61;96442.69;1740550;81;21135;-75
2020/12/25 08:32:18;;;;;;;12.85;9.28;;;;;;;8.78;81.60;96454.88;1739376;81;21181;-77
2020/12/25 08:34:45;;;;;;;14.38;9.25;;;;;;;8.71;81.71;96443.21;1733509;81;21168;-74
2020/12/25 08:37:14;;;;;;;15.48;9.03;;;;;;;8.74;81.67;96460.87;1737403;81;21118;-75
2020/12/25 08:39:42;;;;;;;12.30;9.20;;;;;;;8.76;81.87;96460.73;1733340;83;21200;-76
2020/12/25 08:42:09;;;;;;;11.38;8.45;;;;;;;8.73;81.42;96468.39;1743800;81;21815;-76
2020/12/25 08:44:38;;;;;;;12.70;7.95;;;;;;;8.67;81.60;96473.31;1739790;81;21133;-77
2020/12/25 08:47:10;;;;;;;12.13;8.13;;;;;;;8.67;81.83;96464.13;1733227;83;21140;-75
2020/12/25 08:49:38;;;;;;;11.60;8.70;;;;;;;8.72;82.25;96461.96;1737504;81;21148;-78
2020/12/25 08:52:23;;;;;;;12.88;8.35;;;;;;;8.77;82.25;96464.21;1745887;81;21136;-77
2020/12/25 08:54:59;;;;;;;13.45;9.33;;;;;;;8.78;82.02;96461.44;1736612;81;21133;-75
2020/12/25 08:57:29;;;;;;;12.45;9.40;;;;;;;8.73;81.74;96450.00;1737112;81;21154;-76
2020/12/25 09:00:03;;;;;;;12.65;9.55;;;;;;;8.69;81.95;96453.01;1719954;83;21129;-78
2020/12/25 09:02:30;;;;;;;13.93;10.05;;;;;;;8.67;82.31;96440.48;1719505;83;21126;-77
2020/12/25 09:04:58;;;;;;;14.45;10.08;;;;;;;8.65;82.17;96447.18;1724003;83;21160;-77
2020/12/25 09:07:25;;;;;;;14.28;9.33;;;;;;;8.62;82.17;96448.73;1717029;83;21188;-78
2020/12/25 09:09:52;;;;;;;15.25;9.98;;;;;;;8.63;82.49;96440.39;1722213;83;21152;-78
2020/12/25 09:12:19;;;;;;;12.33;9.70;;;;;;;8.69;82.76;96435.93;1723823;83;21161;-75
2020/12/25 09:14:47;;;;;;;10.93;8.65;;;;;;;8.71;82.50;96430.89;1721900;83;21181;-79
2020/12/25 09:17:14;;;;;;;11.43;8.68;;;;;;;8.73;82.63;96440.80;1720092;83;21127;-81
2020/12/25 09:19:43;;;;;;;10.20;7.58;;;;;;;8.75;82.73;96433.63;1723615;83;21181;-79
2020/12/25 09:22:12;;;;;;;10.25;7.75;;;;;;;8.77;82.56;96436.62;1722339;83;21220;-79
2020/12/25 09:24:40;;;;;;;11.15;8.13;;;;;;;8.83;82.79;96432.97;1716483;83;21713;-79
2020/12/25 09:27:07;;;;;;;10.58;8.25;;;;;;;8.90;82.75;96433.30;1717307;83;21600;-77
2020/12/25 09:29:35;;;;;;;9.48;7.03;;;;;;;8.90;82.62;96433.30;1714746;83;21193;-77
2020/12/25 09:32:02;;;;;;;10.68;7.58;;;;;;;8.87;82.38;96434.86;1724255;83;21638;-81
2020/12/25 09:34:29;;;;;;;10.55;7.75;;;;;;;8.90;82.31;96433.30;1709010;83;21292;-78
2020/12/25 09:36:57;;;;;;;8.20;5.72;;;;;;;8.91;82.28;96427.90;1726033;83;21110;-79
2020/12/25 09:39:24;;;;;;;7.62;5.78;;;;;;;8.92;82.62;96423.49;1722067;83;21156;-81
2020/12/25 09:41:51;;;;;;;8.23;6.60;;;;;;;8.86;82.34;96414.33;1723266;83;21769;-78
2020/12/25 09:44:19;;;;;;;9.25;5.78;;;;;;;8.90;82.53;96412.27;1718370;83;21152;-78
2020/12/25 09:46:46;;;;;;;6.85;4.17;;;;;;;8.95;82.40;96416.67;1723841;83;21136;-75
2020/12/25 09:49:14;;;;;;;6.65;4.72;;;;;;;8.98;82.30;96419.52;1727976;83;21134;-79
2020/12/25 09:51:41;;;;;;;5.75;4.15;;;;;;;8.95;81.51;96415.82;1728556;83;21166;-79
2020/12/25 09:54:08;;;;;;;5.70;4.08;;;;;;;8.84;81.65;96414.93;1712165;83;21153;-78
2020/12/25 09:56:36;;;;;;;6.58;3.72;;;;;;;8.83;81.56;96415.89;1730236;83;21586;-79
2020/12/25 09:59:03;;;;;;;6.90;3.92;;;;;;;8.88;81.57;96415.50;1712791;81;21156;-81
2020/12/25 10:01:32;;;;;;;7.12;4.80;;;;;;;8.87;81.63;96412.52;1705458;83;21215;-80
2020/12/25 10:03:59;;;;;;;5.08;3.37;;;;;;;8.91;82.26;96408.68;1732481;83;21180;-78
2020/12/25 10:06:27;;;;;;;4.65;3.00;;;;;;;8.95;81.88;96415.82;1732309;83;21160;-80
2020/12/25 10:08:55;;;;;;;3.58;2.58;;;;;;;8.93;80.77;96408.08;1732185;83;21153;-78
2020/12/25 10:11:22;;;;;;;3.60;2.70;;;;;;;8.89;80.10;96412.77;1731699;83;21160;-78
2020/12/25 10:13:49;;;;;;;4.33;3.05;;;;;;;8.88;80.91;96422.07;1731777;83;21164;-80
2020/12/25 10:16:18;;;;;;;4.42;3.37;;;;;;;8.90;81.29;96419.69;1731417;83;21194;-79
2020/12/25 10:18:45;;;;;;;9.58;5.80;;;;;;;8.94;81.73;96417.63;1706632;83;21146;-79
2020/12/25 10:21:18;;;;;;;2.52;1.62;;;;;;;9.08;81.80;96419.55;1702543;84;21154;-81
2020/12/25 10:23:45;;;;;;;3.47;1.90;;;;;;;9.19;81.38;96411.59;1702151;84;21638;-78
2020/12/25 10:26:13;;;;;;;3.08;2.00;;;;;;;9.16;80.24;96413.16;1702820;84;21161;-83
2020/12/25 10:28:40;;;;;;;2.83;1.70;;;;;;;9.22;80.95;96415.28;1702422;84;21174;-78
2020/12/25 10:31:09;;;;;;;3.27;2.20;;;;;;;9.23;80.41;96423.53;1701658;84;21173;-79
2020/12/25 10:33:38;;;;;;;7.08;4.53;;;;;;;9.29;80.75;96420.36;1699967;83;21169;-79
2020/12/25 10:36:07;;;;;;;3.08;1.60;;;;;;;9.33;81.06;96419.61;1701233;84;21567;-77
2020/12/25 10:38:34;;;;;;;2.27;1.50;;;;;;;9.32;80.25;96410.91;1701126;84;21161;-80
2020/12/25 10:41:06;;;;;;;2.00;1.50;;;;;;;9.30;79.96;96419.40;1702075;84;21260;-78
2020/12/25 10:43:33;;;;;;;2.52;1.95;;;;;;;9.31;80.04;96427.64;1701711;84;21618;-78
2020/12/25 10:46:00;;;;;;;3.33;2.22;;;;;;;9.35;80.18;96424.27;1702340;84;21190;-81
2020/12/25 10:48:27;;;;;;;4.42;2.37;;;;;;;9.37;80.11;96421.03;1708765;83;21191;-76
2020/12/25 10:50:54;;;;;;;4.70;2.67;;;;;;;9.43;80.21;96418.32;1730025;83;21144;-79
2020/12/25 10:53:22;;;;;;;3.70;2.85;;;;;;;9.40;79.98;96414.66;1731262;83;21172;-84
2020/12/25 10:55:49;;;;;;;6.05;3.15;;;;;;;9.40;79.96;96408.91;1731168;83;21172;-78
2020/12/25 10:58:16;;;;;;;4.47;3.25;;;;;;;9.37;80.03;96411.32;1730845;82;21164;-78
2020/12/25 11:00:43;;;;;;;4.25;3.15;;;;;;;9.33;79.86;96415.66;1731413;83;21697;-80
2020/12/25 11:03:12;;;;;;;4.30;3.33;;;;;;;9.27;79.77;96407.81;1730901;81;21191;-78
2020/12/25 11:05:39;;;;;;;4.42;3.20;;;;;;;9.22;80.11;96408.71;1700755;84;21589;-77
2020/12/25 11:08:09;;;;;;;4.30;3.00;;;;;;;9.13;79.63;96405.05;1702425;84;21341;-82
2020/12/25 11:10:38;;;;;;;3.52;2.87;;;;;;;9.11;79.67;96398.27;1700592;84;21195;-81
2020/12/25 11:13:05;;;;;;;4.67;2.98;;;;;;;8.98;79.65;96399.80;1702284;84;21178;-81
2020/12/25 11:15:34;;;;;;;4.03;2.62;;;;;;;8.87;79.73;96413.37;1701695;84;21193;-79
2020/12/25 11:18:02;;;;;;;5.50;2.72;;;;;;;8.81;79.66;96416.98;1702312;84;21247;-80
2020/12/25 11:20:29;;;;;;;3.77;3.05;;;;;;;8.72;79.73;96421.23;1747766;81;21188;-80
2020/12/25 11:22:56;;;;;;;6.47;4.42;;;;;;;8.64;79.69;96416.61;1775245;81;21266;-79
2020/12/25 11:25:23;;;;;;;4.62;2.80;;;;;;;8.56;79.67;96417.73;1775182;81;21686;-78
2020/12/25 11:27:51;;;;;;;3.95;2.10;;;;;;;8.48;79.34;96418.84;1775641;81;21231;-80
2020/12/25 11:30:18;;;;;;;4.15;3.00;;;;;;;8.37;79.80;96419.68;1775582;81;21287;-79
2020/12/25 11:32:45;;;;;;;1.90;1.40;;;;;;;8.29;79.81;96421.16;1775239;81;21174;-78
2020/12/25 11:35:12;;;;;;;0.90;0.70;;;;;;;8.30;79.86;96414.13;1755063;81;21173;-77
2020/12/25 11:37:41;;;;;;;1.85;0.95;;;;;;;8.22;80.30;96413.43;1736299;83;21177;-78
2020/12/25 11:40:08;;;;;;;0.98;0.80;;;;;;;8.08;79.20;96415.02;1737324;83;21613;-83
2020/12/25 11:42:35;;;;;;;1.25;0.70;;;;;;;8.10;79.52;96423.60;1737101;83;21145;-82
2020/12/25 11:45:03;;;;;;;1.40;1.00;;;;;;;8.12;78.95;96418.58;1737368;83;21145;-79
2020/12/25 11:47:31;;;;;;;0.78;0.60;;;;;;;8.20;79.68;96411.89;1736725;83;21287;-80